Sharps Chapel, Tennessee
Current Conditions -  °F | °C
As of 4:35 PM on Sunday 23 Nov 2014 (Local Time) from K1A6 Reporting Station
Light Rain Light Rain  
Wind Chill: 55°   Ceiling: 12000
Heat Index: 55°   Visibility: 10mi
Dew Point: 51°   Wind: 6mph
Humidity: 87%   Direction: 160°SSE
Pressure: 29.69"   Gusts: NA
Location:  36.34°N, 83.8°W
Report Text: K1A6 232135Z AUTO 16005KT 10SM -RA SCT060 SCT080 OVC120 13/11 A2969 RMK AO2 P0003 T01280107
Loading
Personal Weather Stations






























Interactive Weather Map New forecast layout! Learn more

10-Day Weather Forecast

Advertisements
Track Severe Weather on mobile